Gracewood, Georgia
Current Conditions -  °F | °C
As of 7:53 AM on Thursday 23 Oct 2014 (Local Time) from KAGS Reporting Station
Clear Clear  
Wind Chill: 36°   Ceiling: Unl
Heat Index: 36°   Visibility: 10mi
Dew Point: 35°   Wind: 0mph
Humidity: 97%   Direction: NA
Pressure: 30.1"   Gusts: NA
Location:  33.37°N, 82.03°W
Report Text: KAGS 231153Z 00000KT 10SM CLR 02/02 A3010 RMK AO2 SLP194 T00220017 10094 20022 53003
Loading
Personal Weather Stations






























Interactive Weather Map
Tropical Storm Tracking
New forecast layout! Learn more

10-Day Weather Forecast

Advertisements
Track Severe Weather on mobile